Time;durP1;ratioP1;P1;durP2;ratioP2;P2;SDS_P1;SDS_P2;PMS_P1;PMS_P2;Temp;Humidity;BMP_temperature;BMP_pressure;BME280_temperature;BME280_humidity;BME280_pressure;Samples;Min_cycle;Max_cycle;Signal;HPM_P1;HPM_P2
2022/09/28 00:01:07;;;;;;;4.15;1.40;;;;;;;12.37;100.00;98363.31;5049675;28;20397;-66
2022/09/28 00:03:34;;;;;;;3.83;1.40;;;;;;;12.30;100.00;98356.72;5064481;28;20103;-67
2022/09/28 00:06:04;;;;;;;3.35;1.58;;;;;;;12.40;100.00;98363.16;5089523;28;20028;-67
2022/09/28 00:08:30;;;;;;;3.70;1.70;;;;;;;12.38;100.00;98359.72;5069286;28;20047;-67
2022/09/28 00:10:56;;;;;;;5.70;1.65;;;;;;;12.38;100.00;98349.06;5067069;28;20028;-66
2022/09/28 00:13:22;;;;;;;5.82;2.65;;;;;;;12.39;100.00;98345.41;5069641;28;20123;-66
2022/09/28 00:16:05;;;;;;;5.82;1.60;;;;;;;12.26;100.00;98317.00;5068937;28;20025;-66
2022/09/28 00:18:31;;;;;;;2.60;1.60;;;;;;;12.39;100.00;98326.75;5069316;28;20021;-66
2022/09/28 00:21:17;;;;;;;5.38;1.92;;;;;;;12.36;100.00;98324.31;5069531;28;20043;-65
2022/09/28 00:26:30;;;;;;;2.80;1.70;;;;;;;12.43;100.00;98308.75;5049158;28;20089;-66
2022/09/28 00:28:58;;;;;;;4.10;1.73;;;;;;;12.42;100.00;98312.38;5047956;28;20021;-67
2022/09/28 00:31:25;;;;;;;7.75;1.90;;;;;;;12.40;100.00;98298.28;5049392;28;20426;-67
2022/09/28 00:33:51;;;;;;;3.78;1.80;;;;;;;12.41;100.00;98286.66;5048997;28;20060;-67
2022/09/28 00:36:18;;;;;;;6.10;2.10;;;;;;;12.42;100.00;98275.88;5047699;28;20040;-68
2022/09/28 00:38:43;;;;;;;3.40;1.67;;;;;;;12.44;100.00;98279.31;5047363;28;20041;-68
2022/09/28 00:41:12;;;;;;;7.50;2.55;;;;;;;12.52;100.00;98276.16;5048609;28;20390;-68
2022/09/28 00:43:37;;;;;;;4.57;1.95;;;;;;;12.53;100.00;98284.03;5047344;28;20060;-68
2022/09/28 00:46:09;;;;;;;5.22;1.73;;;;;;;12.56;100.00;98278.50;5047141;28;20060;-68
2022/09/28 00:48:39;;;;;;;2.70;1.60;;;;;;;12.51;100.00;98274.41;5046135;28;20021;-67
2022/09/28 00:51:11;;;;;;;5.35;1.98;;;;;;;12.55;100.00;98273.25;5049702;28;20036;-68
2022/09/28 00:53:40;;;;;;;5.00;2.10;;;;;;;12.56;100.00;98266.97;5049079;28;20076;-68
2022/09/28 00:56:27;;;;;;;4.15;1.65;;;;;;;12.57;100.00;98261.50;5047201;28;20025;-67
2022/09/28 00:58:56;;;;;;;3.53;1.48;;;;;;;12.59;100.00;98261.41;5047962;28;20236;-68
2022/09/28 01:01:22;;;;;;;3.38;1.85;;;;;;;12.58;100.00;98265.03;5048879;28;20036;-68
2022/09/28 01:03:47;;;;;;;2.85;1.90;;;;;;;12.53;100.00;98261.84;5067422;28;20375;-68
2022/09/28 01:06:19;;;;;;;6.85;2.50;;;;;;;12.57;100.00;98260.69;5091096;28;20474;-68
2022/09/28 01:08:47;;;;;;;4.47;1.70;;;;;;;12.53;100.00;98243.16;5092808;28;20066;-68
2022/09/28 01:11:12;;;;;;;4.72;1.75;;;;;;;12.54;100.00;98244.88;5070219;28;20036;-67
2022/09/28 01:13:40;;;;;;;4.57;2.10;;;;;;;12.50;100.00;98230.91;5051238;28;20025;-68
2022/09/28 01:16:30;;;;;;;10.65;2.10;;;;;;;12.63;100.00;98245.13;5052417;28;20453;-67
2022/09/28 01:19:07;;;;;;;7.68;2.15;;;;;;;12.60;100.00;98237.28;5052425;28;20059;-67
2022/09/28 01:21:51;;;;;;;4.63;2.13;;;;;;;12.65;100.00;98229.00;5052535;28;20093;-67
2022/09/28 01:24:51;;;;;;;;;;;;;;;12.66;100.00;98217.34;5052608;28;20040;-68
2022/09/28 01:27:33;;;;;;;5.18;1.50;;;;;;;12.62;100.00;98224.72;5069524;28;20391;-68
2022/09/28 01:30:06;;;;;;;5.57;1.75;;;;;;;12.64;100.00;98216.59;5069576;28;20047;-68
2022/09/28 01:32:35;;;;;;;4.28;2.00;;;;;;;12.61;100.00;98207.03;5072336;28;20028;-67
2022/09/28 01:35:18;;;;;;;10.88;2.13;;;;;;;12.63;100.00;98215.78;5072147;28;20502;-68
2022/09/28 01:37:51;;;;;;;4.55;1.60;;;;;;;12.60;100.00;98196.47;5071810;28;20028;-68
2022/09/28 01:40:19;;;;;;;3.00;1.63;;;;;;;12.63;100.00;98202.44;5072186;28;20111;-69
2022/09/28 01:42:47;;;;;;;4.82;1.70;;;;;;;12.66;100.00;98209.34;5072002;28;20032;-69
2022/09/28 01:45:25;;;;;;;7.75;2.00;;;;;;;12.68;100.00;98205.63;5071998;28;20138;-68
2022/09/28 01:47:55;;;;;;;5.72;1.60;;;;;;;12.67;100.00;98203.91;5072094;28;20020;-67
2022/09/28 01:50:24;;;;;;;8.25;2.08;;;;;;;12.66;100.00;98207.56;5071628;28;20027;-67
2022/09/28 01:53:32;;;;;;;3.47;1.67;;;;;;;12.67;100.00;98211.06;5059940;28;20037;-68
2022/09/28 01:56:04;;;;;;;5.78;1.90;;;;;;;12.60;100.00;98191.94;5050322;28;20498;-67
2022/09/28 01:58:44;;;;;;;3.88;2.05;;;;;;;12.62;100.00;98187.38;5052106;28;20025;-68
2022/09/28 02:01:18;;;;;;;6.88;1.73;;;;;;;12.62;100.00;98175.88;5051718;28;20029;-66
2022/09/28 02:03:52;;;;;;;6.13;1.58;;;;;;;12.66;100.00;98188.88;5068243;28;20118;-67
2022/09/28 02:06:24;;;;;;;5.60;1.80;;;;;;;12.66;100.00;98183.53;5085335;28;20341;-67
2022/09/28 02:08:55;;;;;;;6.07;1.40;;;;;;;12.65;100.00;98181.81;5061208;28;20499;-67
2022/09/28 02:11:21;;;;;;;6.50;1.67;;;;;;;12.66;100.00;98183.53;5051449;28;20106;-67
2022/09/28 02:14:00;;;;;;;4.05;1.67;;;;;;;12.66;100.00;98180.88;5051484;28;20107;-67
2022/09/28 02:16:49;;;;;;;9.95;2.00;;;;;;;12.62;100.00;98174.03;5064753;28;20426;-68
2022/09/28 02:19:19;;;;;;;3.40;1.58;;;;;;;12.65;100.00;98176.47;5071594;28;20062;-68
2022/09/28 02:21:50;;;;;;;3.60;1.40;;;;;;;12.63;100.00;98173.09;5069232;28;20027;-67
2022/09/28 02:24:27;;;;;;;7.32;2.05;;;;;;;12.66;100.00;98167.53;5051397;28;20028;-68
2022/09/28 02:26:55;;;;;;;4.78;1.58;;;;;;;12.65;100.00;98178.31;5051212;28;20029;-68
2022/09/28 02:29:22;;;;;;;3.30;1.65;;;;;;;12.67;100.00;98182.56;5051469;28;20028;-67
2022/09/28 02:31:49;;;;;;;7.55;1.95;;;;;;;12.68;100.00;98170.97;5051042;28;20029;-67
2022/09/28 02:34:15;;;;;;;5.65;2.00;;;;;;;12.70;100.00;98162.84;5051302;28;20028;-68
2022/09/28 02:36:40;;;;;;;7.13;1.60;;;;;;;12.65;100.00;98167.66;5050772;28;20531;-67
2022/09/28 02:39:12;;;;;;;5.93;1.70;;;;;;;12.66;100.00;98164.88;5050641;28;20060;-67
2022/09/28 02:41:53;;;;;;;5.63;1.50;;;;;;;12.70;100.00;98166.34;5051097;28;20518;-67
2022/09/28 02:44:56;;;;;;;5.55;1.60;;;;;;;12.67;100.00;98168.38;5051505;28;20464;-67
2022/09/28 02:47:33;;;;;;;8.00;1.70;;;;;;;12.65;100.00;98156.97;5050534;28;20538;-67
2022/09/28 02:50:20;;;;;;;4.20;1.80;;;;;;;12.71;100.00;98154.72;5050817;28;20083;-67
2022/09/28 02:52:51;;;;;;;4.53;1.63;;;;;;;12.71;100.00;98162.75;5049346;28;20036;-67
2022/09/28 02:55:47;;;;;;;3.63;1.77;;;;;;;12.63;100.00;98157.09;5050283;28;20441;-67
2022/09/28 02:58:33;;;;;;;6.57;1.77;;;;;;;12.72;100.00;98160.91;5069668;28;20036;-67
2022/09/28 03:01:25;;;;;;;3.55;1.20;;;;;;;12.71;100.00;98165.41;5070393;28;20364;-67
2022/09/28 03:04:25;;;;;;;4.93;1.50;;;;;;;12.63;100.00;98143.75;5078730;28;20364;-67
2022/09/28 03:06:58;;;;;;;3.20;1.38;;;;;;;12.73;100.00;98160.81;5089512;28;20028;-67
2022/09/28 03:09:32;;;;;;;4.18;1.60;;;;;;;12.76;100.00;98155.25;5088844;28;20042;-68
2022/09/28 03:11:59;;;;;;;;;;;;;;;12.75;100.00;98158.88;5091162;28;20023;-67
2022/09/28 03:14:24;;;;;;;8.73;1.60;;;;;;;12.74;100.00;98158.97;5090405;28;19912;-67
2022/09/28 03:16:50;;;;;;;5.03;1.70;;;;;;;12.72;100.00;98153.75;5090104;28;20536;-67
2022/09/28 03:19:18;;;;;;;5.63;1.20;;;;;;;12.73;100.00;98160.81;5088937;28;20059;-68
2022/09/28 03:21:44;;;;;;;5.18;1.35;;;;;;;12.76;100.00;98157.94;5085679;28;20437;-67
2022/09/28 03:24:10;;;;;;;4.57;1.73;;;;;;;12.75;100.00;98161.53;5050434;28;20028;-68
2022/09/28 03:26:37;;;;;;;3.60;1.70;;;;;;;12.72;100.00;98161.75;5049280;28;20067;-67
2022/09/28 03:29:02;;;;;;;5.90;1.40;;;;;;;12.72;100.00;98161.75;5049757;28;20108;-67
2022/09/28 03:31:27;;;;;;;4.43;1.52;;;;;;;12.74;100.00;98157.19;5060497;28;20036;-67
2022/09/28 03:33:53;;;;;;;6.03;1.65;;;;;;;12.78;100.00;98166.66;5070023;28;20021;-67
2022/09/28 03:36:18;;;;;;;10.52;2.35;;;;;;;12.76;100.00;98163.25;5069408;28;20055;-67
2022/09/28 03:38:43;;;;;;;5.85;2.92;;;;;;;12.79;100.00;98162.19;5069636;28;20104;-67
2022/09/28 03:41:09;;;;;;;6.03;1.90;;;;;;;12.80;100.00;98167.41;5070045;28;20025;-67
2022/09/28 03:43:34;;;;;;;4.45;1.65;;;;;;;12.76;100.00;98154.41;5068135;28;20058;-67
2022/09/28 03:46:01;;;;;;;3.67;1.30;;;;;;;12.87;100.00;98176.69;5069392;28;20028;-67
2022/09/28 03:48:31;;;;;;;4.22;1.30;;;;;;;12.90;100.00;98175.59;5069785;28;20082;-67
2022/09/28 03:51:00;;;;;;;3.08;1.30;;;;;;;12.90;100.00;98176.47;5069675;28;20060;-67
2022/09/28 03:53:25;;;;;;;1.70;1.27;;;;;;;12.88;100.00;98178.38;5052951;28;20053;-66
2022/09/28 03:55:52;;;;;;;4.18;1.30;;;;;;;12.76;100.00;98168.59;5048865;28;20424;-66
2022/09/28 03:58:19;;;;;;;4.65;1.38;;;;;;;12.60;100.00;98164.44;5049912;28;20056;-66
2022/09/28 04:00:45;;;;;;;6.10;1.48;;;;;;;12.47;100.00;98164.44;5048273;28;20020;-67
2022/09/28 04:03:11;;;;;;;3.15;1.20;;;;;;;12.42;100.00;98166.56;5058517;28;20433;-66
2022/09/28 04:05:36;;;;;;;4.32;1.23;;;;;;;12.34;100.00;98168.91;5089213;28;20059;-66
2022/09/28 04:08:01;;;;;;;3.15;1.05;;;;;;;12.30;100.00;98162.09;5089622;28;20028;-67
2022/09/28 04:10:27;;;;;;;4.47;1.23;;;;;;;12.20;100.00;98160.16;5076389;28;20499;-66
2022/09/28 04:12:58;;;;;;;6.60;1.60;;;;;;;12.20;100.00;98173.50;5061734;28;20020;-65
2022/09/28 04:15:24;;;;;;;6.50;1.60;;;;;;;12.18;100.00;98168.25;5068942;28;20027;-66
2022/09/28 04:17:50;;;;;;;5.97;1.40;;;;;;;12.15;100.00;98173.81;5069098;28;20037;-67
2022/09/28 04:20:16;;;;;;;5.18;1.40;;;;;;;12.19;100.00;98171.78;5069149;28;20086;-66
2022/09/28 04:22:42;;;;;;;1.92;1.27;;;;;;;12.18;100.00;98176.25;5057844;28;20066;-67
2022/09/28 04:25:08;;;;;;;20.80;2.13;;;;;;;12.20;100.00;98171.69;5048854;28;20036;-66
2022/09/28 04:30:17;;;;;;;;;;;;;;;12.22;100.00;98167.13;5049643;28;20215;-66
2022/09/28 04:32:45;;;;;;;5.78;1.40;;;;;;;12.20;100.00;98169.03;5049259;28;20435;-67
2022/09/28 04:35:10;;;;;;;4.03;1.65;;;;;;;12.10;100.00;98151.09;5048051;28;20037;-66
2022/09/28 04:37:36;;;;;;;4.35;1.10;;;;;;;12.20;100.00;98171.69;5048363;28;20028;-67
2022/09/28 04:40:02;;;;;;;5.90;1.50;;;;;;;12.21;100.00;98178.72;5049585;28;20037;-67
2022/09/28 04:42:27;;;;;;;5.45;1.75;;;;;;;12.19;100.00;98175.28;5053353;28;20424;-67
2022/09/28 04:44:52;;;;;;;4.30;1.30;;;;;;;12.20;100.00;98173.50;5053093;28;20024;-67
2022/09/28 04:47:18;;;;;;;4.40;1.25;;;;;;;12.20;100.00;98185.00;5052521;28;20460;-67
2022/09/28 04:49:43;;;;;;;2.17;1.10;;;;;;;12.20;100.00;98187.69;5053834;28;20025;-66
2022/09/28 04:52:08;;;;;;;5.45;1.40;;;;;;;12.20;100.00;98174.34;5053005;28;20491;-66
2022/09/28 04:54:34;;;;;;;1.70;1.05;;;;;;;12.21;100.00;98184.03;5055157;28;20068;-66
2022/09/28 04:57:00;;;;;;;4.03;1.45;;;;;;;12.20;100.00;98179.69;5054516;28;20415;-67
2022/09/28 04:59:25;;;;;;;3.53;1.55;;;;;;;12.19;100.00;98177.94;5053124;28;20462;-68
2022/09/28 05:01:52;;;;;;;4.13;1.25;;;;;;;12.19;100.00;98177.94;5052813;28;20021;-67
2022/09/28 05:04:18;;;;;;;3.05;1.27;;;;;;;12.20;100.00;98181.47;5080020;28;20024;-68
2022/09/28 05:06:43;;;;;;;2.95;2.30;;;;;;;12.27;100.00;98178.31;5091188;28;20170;-66
2022/09/28 05:09:09;;;;;;;3.45;1.75;;;;;;;12.17;100.00;98176.38;5093280;28;20515;-66
2022/09/28 05:11:34;;;;;;;8.68;2.03;;;;;;;12.36;100.00;98188.31;5093069;28;20055;-65
2022/09/28 05:14:00;;;;;;;6.95;1.23;;;;;;;12.25;100.00;98198.88;5092509;28;20031;-66
2022/09/28 05:16:26;;;;;;;5.22;1.30;;;;;;;12.26;100.00;98189.06;5092395;28;20071;-66
2022/09/28 05:18:55;;;;;;;9.55;2.42;;;;;;;12.24;100.00;98194.50;5092815;28;20061;-66
2022/09/28 05:21:23;;;;;;;4.10;1.40;;;;;;;12.20;100.00;98189.47;5092408;28;20037;-67
2022/09/28 05:23:49;;;;;;;5.85;1.40;;;;;;;12.25;100.00;98198.03;5070637;28;20379;-67
2022/09/28 05:26:14;;;;;;;3.15;1.50;;;;;;;12.27;100.00;98204.97;5071969;28;20023;-67
2022/09/28 05:28:40;;;;;;;4.63;1.30;;;;;;;12.26;100.00;98205.91;5072411;28;20038;-67
2022/09/28 05:31:05;;;;;;;6.57;1.65;;;;;;;12.27;100.00;98212.09;5072276;28;20102;-67
2022/09/28 05:33:31;;;;;;;3.28;1.50;;;;;;;12.31;100.00;98209.13;5072128;28;20097;-67
2022/09/28 05:35:58;;;;;;;2.92;1.73;;;;;;;12.33;100.00;98215.22;5071749;28;20566;-68
2022/09/28 05:38:23;;;;;;;4.82;1.40;;;;;;;12.36;100.00;98220.31;5071846;28;20020;-67
2022/09/28 05:40:49;;;;;;;5.00;1.50;;;;;;;12.39;100.00;98216.59;5072223;28;20035;-68
2022/09/28 05:43:14;;;;;;;4.43;1.23;;;;;;;12.40;100.00;98219.16;5071892;28;20095;-68
2022/09/28 05:45:40;;;;;;;6.13;1.80;;;;;;;12.38;100.00;98221.09;5070696;28;20605;-68
2022/09/28 05:48:05;;;;;;;7.78;1.77;;;;;;;12.43;100.00;98229.63;5071786;28;20099;-67
2022/09/28 05:50:31;;;;;;;6.20;1.80;;;;;;;12.42;100.00;98227.88;5082074;28;20518;-68
2022/09/28 05:52:58;;;;;;;7.15;2.50;;;;;;;12.42;100.00;98230.56;5065398;28;20070;-68
2022/09/28 05:55:24;;;;;;;5.05;2.88;;;;;;;12.46;100.00;98224.06;5050024;28;20040;-68
2022/09/28 05:57:49;;;;;;;5.68;2.97;;;;;;;12.51;100.00;98227.28;5090566;28;20058;-68
2022/09/28 06:00:14;;;;;;;5.47;3.58;;;;;;;12.56;100.00;98224.28;5091884;28;20057;-68
2022/09/28 06:02:40;;;;;;;7.93;3.97;;;;;;;12.60;100.00;98236.47;5091587;28;20046;-68
2022/09/28 06:05:05;;;;;;;7.13;4.55;;;;;;;12.62;100.00;98246.06;5091877;28;20111;-68
2022/09/28 06:07:31;;;;;;;10.82;4.22;;;;;;;12.65;100.00;98242.34;5091680;28;20020;-68
2022/09/28 06:09:56;;;;;;;7.38;4.72;;;;;;;12.71;100.00;98239.22;5091509;28;20498;-68
2022/09/28 06:12:22;;;;;;;6.30;3.15;;;;;;;12.68;100.00;98242.97;5069322;28;20082;-68
2022/09/28 06:14:48;;;;;;;10.85;2.72;;;;;;;12.75;100.00;98246.91;5051605;28;20028;-68
2022/09/28 06:17:13;;;;;;;6.20;1.92;;;;;;;12.74;100.00;98242.53;5055362;28;20024;-68
2022/09/28 06:19:38;;;;;;;7.00;1.80;;;;;;;12.77;100.00;98228.13;5070907;28;20093;-67
2022/09/28 06:22:04;;;;;;;6.45;2.05;;;;;;;12.78;100.00;98220.00;5066001;28;20033;-68
2022/09/28 06:24:29;;;;;;;5.50;1.50;;;;;;;12.87;100.00;98245.19;5051235;28;20381;-68
2022/09/28 06:26:55;;;;;;;6.35;1.90;;;;;;;12.89;100.00;98244.16;5050630;28;20029;-66
2022/09/28 06:29:21;;;;;;;15.18;1.88;;;;;;;12.94;100.00;98257.16;5050224;28;20058;-67
2022/09/28 06:31:46;;;;;;;3.58;1.38;;;;;;;12.94;100.00;98254.50;5051440;28;20044;-66
2022/09/28 06:34:12;;;;;;;5.32;1.58;;;;;;;12.81;100.00;98243.84;5067018;28;20025;-66
2022/09/28 06:36:38;;;;;;;3.10;1.80;;;;;;;12.97;100.00;98267.63;5070763;28;20039;-66
2022/09/28 06:39:04;;;;;;;8.20;2.17;;;;;;;12.97;100.00;98267.63;5067220;28;20531;-66
2022/09/28 06:41:30;;;;;;;3.78;1.80;;;;;;;12.96;100.00;98269.41;5069197;28;20111;-66
2022/09/28 06:43:55;;;;;;;6.10;1.75;;;;;;;12.96;100.00;98265.94;5051650;28;20060;-65
2022/09/28 06:46:21;;;;;;;5.95;2.20;;;;;;;13.07;100.00;98280.25;5049801;28;20082;-65
2022/09/28 06:48:47;;;;;;;5.97;2.03;;;;;;;13.13;100.00;98287.81;5067679;28;20332;-65
2022/09/28 06:51:13;;;;;;;5.63;2.00;;;;;;;13.13;100.00;98284.28;5069396;28;20035;-65
2022/09/28 06:53:38;;;;;;;3.50;1.63;;;;;;;13.14;100.00;98270.88;5064834;28;20455;-66
2022/09/28 06:56:05;;;;;;;6.18;1.73;;;;;;;13.28;100.00;98285.06;5052148;28;20033;-65
2022/09/28 06:58:31;;;;;;;8.45;4.22;;;;;;;13.36;100.00;98291.53;5050527;28;20473;-65
2022/09/28 07:00:59;;;;;;;3.92;1.60;;;;;;;13.42;100.00;98288.44;5050487;28;20032;-65
2022/09/28 07:03:25;;;;;;;2.95;1.60;;;;;;;13.45;100.00;98292.69;5062472;28;20035;-65
2022/09/28 07:05:53;;;;;;;2.45;1.50;;;;;;;13.47;100.00;98296.13;5089428;28;20032;-65
2022/09/28 07:08:20;;;;;;;6.00;2.58;;;;;;;13.52;100.00;98291.31;5070675;28;20017;-65
2022/09/28 07:10:48;;;;;;;4.90;1.67;;;;;;;13.53;100.00;98296.53;5049205;28;20028;-65
2022/09/28 07:13:16;;;;;;;7.32;2.08;;;;;;;13.46;100.00;98302.44;5048054;28;20052;-67
2022/09/28 07:15:42;;;;;;;9.65;2.03;;;;;;;13.53;100.00;98303.69;5063758;28;20024;-67
2022/09/28 07:18:09;;;;;;;7.13;1.70;;;;;;;13.56;100.00;98306.16;5067146;28;20050;-67
2022/09/28 07:20:36;;;;;;;6.60;2.05;;;;;;;13.54;100.00;98310.75;5068287;28;20028;-66
2022/09/28 07:23:04;;;;;;;5.95;2.05;;;;;;;13.49;100.00;98312.91;5067891;28;20055;-67
2022/09/28 07:25:31;;;;;;;3.35;1.90;;;;;;;13.55;100.00;98312.44;5054591;28;20029;-67
2022/09/28 07:27:58;;;;;;;7.63;2.85;;;;;;;13.62;100.00;98327.09;5050968;28;20078;-67
2022/09/28 07:30:26;;;;;;;7.93;2.47;;;;;;;13.57;100.00;98330.09;5056037;28;20554;-68
2022/09/28 07:32:52;;;;;;;4.00;1.90;;;;;;;13.62;100.00;98337.78;5064558;28;20115;-67
2022/09/28 07:35:17;;;;;;;4.07;1.95;;;;;;;13.66;100.00;98339.25;5069423;28;20020;-66
2022/09/28 07:37:42;;;;;;;5.60;1.98;;;;;;;13.75;100.00;98346.63;5062950;28;20127;-67
2022/09/28 07:42:53;;;;;;;9.77;2.22;;;;;;;13.79;100.00;98348.13;5052777;28;20439;-67
2022/09/28 07:45:24;;;;;;;2.92;1.90;;;;;;;13.86;100.00;98354.69;5047862;28;20037;-67
2022/09/28 07:47:54;;;;;;;8.32;2.25;;;;;;;13.98;100.00;98353.81;5047783;28;20032;-67
2022/09/28 07:50:20;;;;;;;6.63;1.92;;;;;;;13.98;100.00;98359.16;5053543;28;20492;-67
2022/09/28 07:52:45;;;;;;;8.48;2.03;;;;;;;13.98;100.00;98359.16;5067604;28;20115;-67
2022/09/28 07:55:11;;;;;;;6.85;2.15;;;;;;;14.03;100.00;98365.91;5067568;28;20454;-67
2022/09/28 07:57:36;;;;;;;9.50;2.75;;;;;;;14.08;100.00;98370.91;5067205;28;20024;-66
2022/09/28 08:00:05;;;;;;;6.82;1.90;;;;;;;14.09;100.00;98372.59;5066990;28;20663;-67
2022/09/28 08:02:32;;;;;;;5.93;2.03;;;;;;;14.11;100.00;98378.69;5069076;28;20471;-67
2022/09/28 08:04:58;;;;;;;6.82;2.00;;;;;;;14.11;100.00;98381.38;5071598;28;20046;-67
2022/09/28 08:07:24;;;;;;;5.40;1.73;;;;;;;14.19;100.00;98379.00;5067169;28;20090;-67
2022/09/28 08:09:50;;;;;;;6.20;1.88;;;;;;;14.30;100.00;98382.63;5062029;28;20442;-66
2022/09/28 08:12:17;;;;;;;7.97;2.20;;;;;;;14.27;100.00;98374.81;5065135;28;20387;-67
2022/09/28 08:14:42;;;;;;;3.92;1.70;;;;;;;14.35;100.00;98391.16;5052532;28;20071;-67
2022/09/28 08:17:09;;;;;;;3.50;1.73;;;;;;;14.46;100.00;98390.38;5048657;28;20021;-66
2022/09/28 08:22:19;;;;;;;7.47;2.70;;;;;;;14.62;100.00;98387.41;5056652;28;20074;-66
2022/09/28 08:24:46;;;;;;;3.00;1.85;;;;;;;14.59;100.00;98393.84;5068887;28;20039;-66
2022/09/28 08:27:13;;;;;;;8.02;1.77;;;;;;;14.69;100.00;98394.00;5069347;28;20031;-66
2022/09/28 08:29:38;;;;;;;8.63;2.80;;;;;;;14.82;100.00;98405.50;5069376;28;20111;-66
2022/09/28 08:32:07;;;;;;;5.32;1.88;;;;;;;14.77;100.00;98405.84;5066578;28;20116;-66
2022/09/28 08:34:34;;;;;;;4.10;2.22;;;;;;;14.70;100.00;98407.28;5067537;28;20032;-66
2022/09/28 08:36:59;;;;;;;5.85;1.98;;;;;;;14.71;100.00;98403.63;5067187;28;20147;-66
2022/09/28 08:39:25;;;;;;;9.23;1.90;;;;;;;14.67;100.00;98396.81;5067529;28;20120;-66
2022/09/28 08:42:05;;;;;;;7.03;2.20;;;;;;;14.77;100.00;98413.88;5068020;28;20535;-66
2022/09/28 08:44:56;;;;;;;6.53;1.80;;;;;;;14.77;99.62;98415.72;5067556;28;20048;-66
2022/09/28 08:50:18;;;;;;;6.13;1.52;;;;;;;14.77;98.09;98421.06;5051464;28;20036;-66
2022/09/28 08:52:46;;;;;;;4.15;1.70;;;;;;;14.75;97.26;98423.84;5048941;28;20090;-66
2022/09/28 08:55:15;;;;;;;4.95;2.60;;;;;;;14.76;97.17;98417.50;5048901;28;20431;-66
2022/09/28 08:57:49;;;;;;;7.72;1.75;;;;;;;14.78;95.76;98425.47;5048846;28;20029;-65
2022/09/28 09:00:41;;;;;;;8.40;2.17;;;;;;;14.94;96.09;98429.53;5048778;28;20078;-65
2022/09/28 09:03:13;;;;;;;6.75;1.73;;;;;;;14.98;95.84;98427.47;5056314;28;20098;-66
2022/09/28 09:06:07;;;;;;;5.55;1.90;;;;;;;15.13;96.14;98429.00;5088967;28;20491;-65
2022/09/28 09:08:48;;;;;;;5.63;2.25;;;;;;;15.26;94.80;98433.31;5087820;28;20487;-65
2022/09/28 09:11:47;;;;;;;4.13;1.85;;;;;;;15.38;94.65;98421.66;5088965;28;20499;-66
2022/09/28 09:14:51;;;;;;;3.28;1.45;;;;;;;15.47;93.07;98426.31;5088860;28;20475;-65
2022/09/28 09:18:02;;;;;;;6.30;2.15;;;;;;;15.46;92.68;98429.13;5087223;28;20415;-65
2022/09/28 09:20:47;;;;;;;5.38;1.95;;;;;;;15.46;91.35;98427.31;5086280;28;20040;-66
2022/09/28 09:23:34;;;;;;;4.93;1.80;;;;;;;15.30;88.32;98424.06;5059115;28;20480;-66
2022/09/28 09:26:16;;;;;;;4.40;1.58;;;;;;;15.26;89.28;98430.63;5048369;28;20108;-65
2022/09/28 09:28:51;;;;;;;3.38;1.48;;;;;;;15.42;88.44;98428.50;5052717;28;20033;-66
2022/09/28 09:31:41;;;;;;;3.63;1.48;;;;;;;15.48;87.88;98444.13;5069426;28;20028;-65
2022/09/28 09:34:18;;;;;;;3.63;1.73;;;;;;;15.62;87.24;98453.75;5072525;28;20028;-66
2022/09/28 09:37:07;;;;;;;3.67;1.40;;;;;;;15.76;87.37;98453.53;5070890;28;20024;-66
2022/09/28 09:39:55;;;;;;;2.35;1.60;;;;;;;15.87;88.23;98458.03;5071865;28;20221;-66
2022/09/28 09:43:01;;;;;;;3.95;1.30;;;;;;;15.86;86.90;98459.03;5071599;28;20982;-65
2022/09/28 09:45:39;;;;;;;4.55;2.42;;;;;;;15.72;86.37;98457.44;5071125;28;20117;-65
2022/09/28 09:48:34;;;;;;;3.58;1.52;;;;;;;15.66;86.83;98452.56;5071976;28;20035;-65
2022/09/28 09:51:05;;;;;;;4.93;1.42;;;;;;;15.70;87.47;98454.00;5071727;28;20039;-65
2022/09/28 09:54:00;;;;;;;3.20;1.67;;;;;;;15.71;87.07;98451.22;5054672;28;20048;-65
2022/09/28 09:56:33;;;;;;;9.15;2.25;;;;;;;15.54;85.64;98459.72;5051025;28;20053;-65
2022/09/28 09:59:05;;;;;;;4.95;1.70;;;;;;;15.53;86.13;98452.63;5051843;28;20033;-65
2022/09/28 10:01:37;;;;;;;6.53;1.60;;;;;;;15.48;84.26;98454.84;5051484;28;20032;-65
2022/09/28 10:04:10;;;;;;;3.78;1.13;;;;;;;15.54;83.63;98459.72;5053123;28;20036;-65
2022/09/28 10:06:37;;;;;;;2.70;1.50;;;;;;;15.66;83.39;98461.47;5069614;28;20026;-65
2022/09/28 10:09:12;;;;;;;6.45;1.27;;;;;;;16.03;83.17;98455.88;5071175;28;20424;-65
2022/09/28 10:11:49;;;;;;;2.25;1.15;;;;;;;16.32;82.28;98459.75;5069136;28;20107;-65
2022/09/28 10:14:20;;;;;;;3.53;1.38;;;;;;;16.39;80.21;98463.69;5051634;28;20373;-65
2022/09/28 10:16:48;;;;;;;4.70;1.40;;;;;;;16.53;80.48;98468.78;5050987;28;20104;-66
2022/09/28 10:19:17;;;;;;;3.00;1.45;;;;;;;16.30;76.34;98461.72;5051578;28;20048;-65
2022/09/28 10:21:45;;;;;;;5.07;1.33;;;;;;;16.46;79.64;98463.06;5053607;28;20100;-65
2022/09/28 10:24:41;;;;;;;2.22;1.40;;;;;;;16.44;77.82;98461.47;5071660;28;20029;-65
2022/09/28 10:27:13;;;;;;;3.63;1.38;;;;;;;16.57;79.34;98462.22;5070631;28;20446;-65
2022/09/28 10:30:01;;;;;;;4.60;1.60;;;;;;;16.74;77.87;98458.97;5071616;28;20491;-65
2022/09/28 10:32:36;;;;;;;3.35;1.33;;;;;;;17.12;76.66;98453.16;5070571;28;20028;-65
2022/09/28 10:35:17;;;;;;;8.23;2.25;;;;;;;17.18;74.96;98452.63;5071341;28;20071;-65
2022/09/28 10:38:05;;;;;;;3.38;1.30;;;;;;;17.73;75.19;98455.88;5069055;28;20480;-65
2022/09/28 10:40:54;;;;;;;3.25;1.48;;;;;;;18.10;75.27;98457.06;5069356;28;20080;-65
2022/09/28 10:43:23;;;;;;;3.45;1.45;;;;;;;17.98;73.13;98439.31;5063947;28;20037;-65
2022/09/28 10:46:13;;;;;;;3.00;1.25;;;;;;;18.05;71.28;98453.94;5049330;28;20458;-65
2022/09/28 10:49:02;;;;;;;3.03;1.38;;;;;;;17.78;69.12;98447.41;5048984;28;20060;-65
2022/09/28 10:51:42;;;;;;;6.03;1.60;;;;;;;17.90;70.62;98452.59;5049730;28;20122;-65
2022/09/28 10:54:20;;;;;;;5.07;1.00;;;;;;;18.13;68.16;98445.19;5070625;28;20053;-65
2022/09/28 10:56:47;;;;;;;3.03;1.33;;;;;;;18.19;64.90;98453.56;5053718;28;20029;-65
2022/09/28 10:59:41;;;;;;;5.40;1.20;;;;;;;18.39;63.03;98457.22;5051072;28;20472;-65
2022/09/28 11:02:23;;;;;;;6.00;1.40;;;;;;;18.51;66.28;98461.53;5049897;28;20519;-65
2022/09/28 11:04:51;;;;;;;6.15;1.40;;;;;;;18.82;65.50;98456.91;5086063;28;20081;-65
2022/09/28 11:07:29;;;;;;;4.50;1.85;;;;;;;18.92;65.00;98452.41;5090263;28;20032;-65
2022/09/28 11:09:57;;;;;;;2.55;1.17;;;;;;;18.83;64.11;98437.91;5090381;28;20032;-66
2022/09/28 11:12:26;;;;;;;3.70;1.30;;;;;;;18.77;63.16;98448.41;5090824;28;20024;-65
2022/09/28 11:15:04;;;;;;;3.42;1.42;;;;;;;18.61;62.50;98454.34;5090444;28;20424;-66
2022/09/28 11:17:32;;;;;;;2.75;1.20;;;;;;;18.83;64.72;98451.38;5090023;28;20031;-65
2022/09/28 11:20:20;;;;;;;4.68;1.20;;;;;;;19.24;63.43;98453.81;5090508;28;20034;-66
2022/09/28 11:22:47;;;;;;;5.45;1.30;;;;;;;19.55;61.94;98444.63;5068122;28;20231;-65
2022/09/28 11:25:15;;;;;;;4.10;1.17;;;;;;;19.35;59.53;98440.25;5050334;28;20063;-65
2022/09/28 11:27:41;;;;;;;4.47;1.50;;;;;;;19.17;57.49;98438.38;5050058;28;20455;-65
2022/09/28 11:30:44;;;;;;;3.22;1.20;;;;;;;19.11;61.22;98433.56;5049955;28;20082;-65
2022/09/28 11:33:18;;;;;;;6.32;1.40;;;;;;;18.89;59.82;98436.50;5058782;28;20020;-66
2022/09/28 11:36:11;;;;;;;6.07;1.23;;;;;;;18.73;61.80;98441.59;5069641;28;20033;-65
2022/09/28 11:38:50;;;;;;;3.63;1.00;;;;;;;18.91;62.52;98435.38;5069892;28;20081;-65
2022/09/28 11:41:21;;;;;;;3.00;1.10;;;;;;;19.32;60.88;98437.81;5069791;28;20110;-65
2022/09/28 11:44:04;;;;;;;2.78;1.00;;;;;;;19.59;55.69;98432.56;5070089;28;20032;-65
2022/09/28 11:46:33;;;;;;;3.80;1.10;;;;;;;19.73;57.94;98433.09;5069486;28;20100;-65
2022/09/28 11:49:10;;;;;;;3.42;0.90;;;;;;;19.85;59.35;98427.38;5069375;28;20039;-65
2022/09/28 11:51:41;;;;;;;2.53;1.10;;;;;;;19.92;55.70;98436.59;5067672;28;20399;-65
2022/09/28 11:54:25;;;;;;;4.50;1.23;;;;;;;19.53;55.20;98437.69;5049310;28;20049;-65
2022/09/28 11:56:51;;;;;;;2.20;0.80;;;;;;;19.73;59.22;98436.66;5049033;28;20060;-65
2022/09/28 11:59:49;;;;;;;1.38;0.90;;;;;;;19.99;56.16;98428.75;5048845;28;20033;-65
2022/09/28 12:02:23;;;;;;;4.68;1.25;;;;;;;19.69;57.44;98421.75;5057013;28;20411;-65